Peterson, IA (51047)

7:50 AM CST on December 19, 2014 (GMT -0600)
IADOT Storm Lake (US 71/IA 3) | Change Station
CLOSE
Current Station
Personal Weather Station
Location: Truesdale, IA
Elevation: 1328 ft
Nearby Weather Stations

Elev 1328 ft 42.75 °N, 95.15 °W | Updated 27 minutes ago

Overcast
Overcast
29 °F
Feels Like 23 °F
N
6
Wind Variable Wind from SSE
Gusts 7.0 mph

Today
High -- | Low -- °F
--% Chance of Precip.
Yesterday
High -- | Low -- °F
Precip. -- in
7:48 AM 4:49 PM
Waning Crescent, 8% visible
Pressure 30.20 in
Visibility 5.0 miles
Clouds Overcast 800 ft
Windchill 23 °F
Dew Point 27 °F
Humidity 93%
Rainfall -999.00 in
Snow Depth Not available.
UV 0 out of 12
Pollen .10 out of 12
Air Quality Not available.
Flu Activity Not available.
METAR KCKP 191335Z AUTO 18003KT 5SM BR OVC008 M01/M01 A3020 RMK AO2 T10131015

More Conditions Fewer Conditions

Pressure 30.20 in
Visibility 5.0 miles
Clouds Overcast 800 ft
Windchill 23 °F
Dew Point 27 °F
Humidity 93%
Rainfall -999.00 in
Snow Depth Not available.
UV 0 out of 12
Pollen .10 out of 12
Air Quality Not available.
Flu Activity Not available.
METAR KCKP 191335Z AUTO 18003KT 5SM BR OVC008 M01/M01 A3020 RMK AO2 T10131015

More Conditions Fewer Conditions

10-Day Weather Forecast

Almanac

Astronomy

Dec. 19, 2014 Rise Set
Actual Time
Civil Twilight
Nautical Twilight
Astronomical Twilight
Moon
Length of Visible Light
Length of Day
Tomorrow will be .
, % of the Moon is Illuminated

Today's Extremes

State Highs State Lows

Community

WunderPhotos

Upload Photos

1,778,987 photos uploaded!

WunderBlogs® & News

Nearby

Air Quality

  Air Quality AQ Index Pollutant
Not available.

Snow Depth

Station Depth Elevation

Earthquake Activity

City Distance Mag. Time & Date
Minimum magnitude displayed is 2.5.

Coastal Water Temperatures

Place Temperature

Nearby Weather Stations